Time;durP1;ratioP1;P1;durP2;ratioP2;P2;SDS_P1;SDS_P2;PMS_P1;PMS_P2;Temp;Humidity;BMP_temperature;BMP_pressure;BME280_temperature;BME280_humidity;BME280_pressure;Samples;Min_cycle;Max_cycle;Signal;HPM_P1;HPM_P2
2024/02/19 02:31:35;;;;;;;12.50;8.20;;;;;;;4.34;50.76;100907.48;101149;1292;618293;-60
2024/02/19 02:34:46;;;;;;;12.00;7.70;;;;;;;5.10;48.33;100902.80;104194;1266;61824;-60
2024/02/19 02:37:23;;;;;;;11.00;7.50;;;;;;;5.03;48.10;100894.27;104040;1269;59998;-60
2024/02/19 02:40:17;;;;;;;12.80;7.70;;;;;;;4.98;47.89;100897.23;104291;1265;71305;-60
2024/02/19 02:43:29;;;;;;;16.10;8.60;;;;;;;4.87;48.43;100895.83;104186;1266;70374;-61
2024/02/19 02:46:47;;;;;;;11.70;7.70;;;;;;;4.72;48.48;100895.30;104090;1262;73330;-58
2024/02/19 02:50:11;;;;;;;12.90;7.00;;;;;;;4.67;48.63;100890.95;104101;1267;61621;-60
2024/02/19 02:53:29;;;;;;;12.00;6.90;;;;;;;4.53;48.74;100893.01;104276;1262;60258;-60
2024/02/19 02:56:04;;;;;;;12.50;7.50;;;;;;;4.50;48.98;100897.34;104030;1269;71857;-59
2024/02/19 02:59:15;;;;;;;12.80;7.70;;;;;;;4.47;49.15;100896.46;103992;1278;70155;-61
2024/02/19 03:01:58;;;;;;;13.10;7.50;;;;;;;4.45;49.09;100894.91;104080;1263;72117;-60
2024/02/19 03:04:25;;;;;;;12.60;7.80;;;;;;;4.38;49.21;100893.69;104367;1264;61625;-60
2024/02/19 03:07:37;;;;;;;11.10;7.20;;;;;;;4.37;49.21;100886.90;103856;1269;59816;-59
2024/02/19 03:10:55;;;;;;;13.00;7.70;;;;;;;4.34;49.88;100886.89;103871;1283;73255;-59
2024/02/19 03:14:13;;;;;;;9.70;7.10;;;;;;;4.33;49.61;100886.55;104359;1262;70010;-59
2024/02/19 03:17:00;;;;;;;8.70;6.50;;;;;;;4.36;49.74;100885.34;103850;1273;75189;-60
2024/02/19 03:19:27;;;;;;;9.80;6.70;;;;;;;4.33;49.93;100890.02;104271;1279;62056;-60
2024/02/19 03:22:40;;;;;;;12.00;7.40;;;;;;;4.39;50.07;100893.69;104284;1255;60259;-60
2024/02/19 03:26:05;;;;;;;10.40;6.30;;;;;;;4.45;49.59;100893.16;104096;1261;73178;-62
2024/02/19 03:29:30;;;;;;;9.50;6.80;;;;;;;4.42;49.67;100893.52;105399;1256;69025;-60
2024/02/19 03:32:29;;;;;;;12.30;7.60;;;;;;;4.37;50.10;100890.38;104608;1256;73021;-60
2024/02/19 03:35:08;;;;;;;10.50;6.80;;;;;;;4.41;50.01;100893.34;103995;1274;61411;-61
2024/02/19 03:38:12;;;;;;;10.80;6.70;;;;;;;4.42;50.39;100896.11;104396;1256;60488;-60
2024/02/19 03:40:39;;;;;;;12.10;7.10;;;;;;;4.37;50.26;100886.55;104557;1260;71994;-62
2024/02/19 03:43:18;;;;;;;11.10;7.20;;;;;;;4.50;50.43;100897.18;104558;1256;69647;-60
2024/02/19 03:46:30;;;;;;;12.50;7.40;;;;;;;4.54;50.33;100896.49;104323;1275;73130;-60
2024/02/19 03:49:54;;;;;;;10.20;6.90;;;;;;;4.54;50.66;100896.66;104307;1259;61880;-60
2024/02/19 03:52:59;;;;;;;11.90;6.90;;;;;;;4.17;51.52;100905.06;104918;1256;59862;-61
2024/02/19 03:55:26;;;;;;;13.10;7.70;;;;;;;4.17;51.19;100906.11;104296;1261;74679;-60
2024/02/19 03:58:45;;;;;;;11.10;7.20;;;;;;;3.71;52.56;100905.73;104850;1256;69196;-60
2024/02/19 04:01:31;;;;;;;11.30;7.10;;;;;;;3.63;53.13;100902.91;104277;1256;72350;-59
2024/02/19 04:04:49;;;;;;;10.10;7.70;;;;;;;3.58;53.00;100899.75;104699;1257;61181;-57
2024/02/19 04:07:35;;;;;;;11.30;7.50;;;;;;;3.44;53.89;100905.57;104415;1256;59779;-59
2024/02/19 04:10:47;;;;;;;12.80;8.10;;;;;;;3.36;54.44;100904.31;104494;1261;72782;-59
2024/02/19 04:14:11;;;;;;;15.50;8.30;;;;;;;3.49;54.34;100901.96;104500;1257;69761;-59
2024/02/19 04:17:26;;;;;;;14.60;7.80;;;;;;;3.36;54.59;100896.68;104751;1256;72300;-60
2024/02/19 04:20:06;;;;;;;13.20;8.80;;;;;;;3.40;54.19;100895.84;104602;1258;61962;-59
2024/02/19 04:23:17;;;;;;;15.40;8.40;;;;;;;3.33;54.08;100891.80;104659;1258;60004;-61
2024/02/19 04:26:03;;;;;;;14.30;9.00;;;;;;;3.30;53.97;100888.50;104439;1256;72724;-59
2024/02/19 04:29:22;;;;;;;16.40;8.90;;;;;;;3.40;53.72;100886.47;104781;1256;69881;-60
2024/02/19 04:32:40;;;;;;;13.40;7.90;;;;;;;3.39;53.34;100892.19;104335;1259;72956;-62
2024/02/19 04:36:00;;;;;;;12.60;8.40;;;;;;;3.27;53.59;100892.80;104286;1254;60863;-61
2024/02/19 04:38:49;;;;;;;14.20;8.90;;;;;;;3.21;53.34;100897.10;104201;1262;60351;-61
2024/02/19 04:42:01;;;;;;;13.80;8.30;;;;;;;3.16;53.34;100895.66;104961;1256;73259;-59
2024/02/19 04:45:25;;;;;;;14.20;8.60;;;;;;;3.15;53.48;100898.77;105271;1250;69339;-60
2024/02/19 04:48:43;;;;;;;12.40;8.60;;;;;;;3.10;53.59;100898.56;104339;1257;73471;-60
2024/02/19 04:51:17;;;;;;;16.20;8.30;;;;;;;3.11;53.72;100901.34;104348;1253;60453;-60
2024/02/19 04:54:28;;;;;;;13.20;8.50;;;;;;;3.09;53.63;100904.45;104924;1252;59733;-60
2024/02/19 04:57:14;;;;;;;13.80;8.70;;;;;;;3.07;54.20;100906.51;104615;1258;72630;-61
2024/02/19 05:00:33;;;;;;;12.60;8.30;;;;;;;3.01;54.20;100905.77;105149;1253;69720;-58
2024/02/19 05:03:16;;;;;;;16.50;8.70;;;;;;;3.02;54.31;100904.73;104865;1253;72508;-61
2024/02/19 05:05:54;;;;;;;11.60;7.90;;;;;;;3.05;54.25;100903.02;104616;1268;61496;-60
2024/02/19 05:09:05;;;;;;;11.50;8.20;;;;;;;3.07;54.43;100905.30;104833;1259;60546;-60
2024/02/19 05:12:23;;;;;;;12.40;8.20;;;;;;;3.29;53.77;100907.55;104796;1253;73417;-59
2024/02/19 05:15:47;;;;;;;13.90;7.90;;;;;;;3.32;54.24;100910.87;105647;1255;70420;-60
2024/02/19 05:19:05;;;;;;;12.40;7.80;;;;;;;3.33;54.36;100912.27;104570;1256;72937;-60
2024/02/19 05:22:29;;;;;;;14.40;8.80;;;;;;;3.39;54.82;100918.52;104419;1253;62241;-60
2024/02/19 05:25:48;;;;;;;12.80;9.00;;;;;;;3.47;55.01;100913.56;104420;1272;60373;-60
2024/02/19 05:28:21;;;;;;;11.90;8.40;;;;;;;3.52;55.22;100912.38;104507;1256;73838;-59
2024/02/19 05:30:54;;;;;;;13.80;8.50;;;;;;;3.56;55.62;100905.11;104409;1268;69743;-60
2024/02/19 05:33:28;;;;;;;16.30;9.00;;;;;;;3.64;55.70;100909.16;104883;1255;73053;-60
2024/02/19 05:35:56;;;;;;;13.20;8.70;;;;;;;3.68;55.60;100904.32;105067;1253;61810;-60
2024/02/19 05:39:13;;;;;;;15.20;9.60;;;;;;;3.95;55.37;100904.10;104970;1251;60118;-60
2024/02/19 05:42:00;;;;;;;12.70;8.40;;;;;;;4.47;53.00;100908.80;105094;1251;73296;-60
2024/02/19 05:45:22;;;;;;;13.00;8.80;;;;;;;4.42;53.14;100909.14;104953;1253;69567;-62
2024/02/19 05:48:40;;;;;;;17.30;9.30;;;;;;;4.44;53.24;100908.79;105296;1252;72731;-60
2024/02/19 05:51:58;;;;;;;13.70;9.60;;;;;;;4.52;52.71;100910.55;105341;1252;61651;-60
2024/02/19 05:55:23;;;;;;;15.10;9.50;;;;;;;4.53;52.98;100913.67;105197;1252;59770;-60
2024/02/19 05:58:33;;;;;;;15.60;8.90;;;;;;;4.56;53.00;100914.38;104509;1253;74466;-59
2024/02/19 06:01:01;;;;;;;16.60;8.80;;;;;;;4.61;53.14;100914.05;104957;1263;69229;-60
2024/02/19 06:03:57;;;;;;;12.50;8.20;;;;;;;4.67;53.12;100914.58;104957;1253;72448;-61
2024/02/19 06:07:08;;;;;;;12.10;8.40;;;;;;;4.75;53.32;100915.29;104550;1253;61545;-60
2024/02/19 06:10:26;;;;;;;10.80;7.70;;;;;;;4.83;53.14;100922.58;104635;1253;60414;-60
2024/02/19 06:13:52;;;;;;;10.60;7.40;;;;;;;4.98;53.13;100922.27;104784;1253;73483;-59
2024/02/19 06:17:12;;;;;;;13.60;7.80;;;;;;;5.08;52.80;100922.44;105343;1256;69212;-60
2024/02/19 06:19:48;;;;;;;8.70;6.20;;;;;;;5.13;52.92;100924.69;104822;1253;72347;-60
2024/02/19 06:22:22;;;;;;;10.40;6.40;;;;;;;5.23;52.53;100930.77;105149;1258;59751;-63
2024/02/19 06:25:33;;;;;;;9.60;5.60;;;;;;;5.29;52.25;100927.28;105563;1253;59796;-61
2024/02/19 06:28:20;;;;;;;7.30;5.30;;;;;;;5.36;52.45;100929.71;105261;1253;72772;-61
2024/02/19 06:31:32;;;;;;;10.70;5.90;;;;;;;5.44;52.11;100930.05;105806;1255;69559;-62
2024/02/19 06:34:19;;;;;;;7.70;5.00;;;;;;;5.57;51.56;100929.18;104587;1262;72928;-61
2024/02/19 06:36:47;;;;;;;9.80;4.90;;;;;;;5.63;51.46;100929.16;105534;1253;60779;-61
2024/02/19 06:39:51;;;;;;;7.00;4.10;;;;;;;5.64;51.08;100928.64;105574;1257;59937;-62
2024/02/19 06:42:31;;;;;;;7.20;4.70;;;;;;;5.70;51.11;100921.66;105296;1253;73044;-60
2024/02/19 06:45:25;;;;;;;4.10;3.00;;;;;;;5.78;50.41;100924.42;105723;1256;68364;-62
2024/02/19 06:47:51;;;;;;;4.80;3.30;;;;;;;5.78;50.15;100926.52;105420;1255;72901;-60
2024/02/19 06:50:31;;;;;;;7.00;3.60;;;;;;;5.75;50.39;100926.17;105131;1254;60948;-61
2024/02/19 06:53:43;;;;;;;6.10;3.60;;;;;;;5.87;49.54;100923.36;104833;1254;59936;-61
2024/02/19 06:56:30;;;;;;;4.40;3.30;;;;;;;5.93;49.20;100923.69;105079;1253;72928;-61
2024/02/19 06:59:42;;;;;;;4.70;2.90;;;;;;;5.94;49.27;100923.52;104664;1253;69607;-60
2024/02/19 07:03:07;;;;;;;3.50;2.60;;;;;;;5.86;48.50;100924.75;105045;1257;72970;-62
2024/02/19 07:06:15;;;;;;;4.80;3.70;;;;;;;5.98;48.28;100919.35;104441;1253;62224;-61
2024/02/19 07:08:52;;;;;;;4.40;3.00;;;;;;;6.12;48.29;100918.09;104902;1257;60874;-60
2024/02/19 07:12:03;;;;;;;4.50;3.30;;;;;;;6.18;48.36;100913.52;105350;1252;72739;-60
2024/02/19 07:15:28;;;;;;;4.20;2.90;;;;;;;6.21;48.40;100913.17;104570;1269;70052;-60
2024/02/19 07:18:47;;;;;;;5.40;3.00;;;;;;;6.30;48.16;100911.39;104330;1253;72791;-60
2024/02/19 07:22:12;;;;;;;4.50;2.80;;;;;;;5.96;48.39;100912.91;104310;1256;61096;-60
2024/02/19 07:25:03;;;;;;;3.70;2.70;;;;;;;6.39;47.60;100909.25;104597;1256;59747;-60
2024/02/19 07:28:31;;;;;;;4.70;3.00;;;;;;;6.44;47.05;100911.13;104748;1252;73507;-60
2024/02/19 07:31:15;;;;;;;5.00;3.50;;;;;;;6.59;46.89;100908.08;104932;1253;70208;-60
2024/02/19 07:34:35;;;;;;;5.40;3.30;;;;;;;6.55;46.99;100907.05;105498;1256;72757;-60
2024/02/19 07:37:56;;;;;;;5.40;3.10;;;;;;;6.47;47.15;100910.60;105522;1261;61213;-62
2024/02/19 07:41:04;;;;;;;4.20;3.20;;;;;;;6.21;47.72;100908.98;105650;1253;60536;-59
2024/02/19 07:43:44;;;;;;;5.20;3.00;;;;;;;6.21;47.38;100906.55;104955;1256;74167;-60
2024/02/19 07:47:00;;;;;;;3.10;2.80;;;;;;;6.32;46.89;100905.45;104505;1254;69734;-61
2024/02/19 07:50:20;;;;;;;3.70;2.70;;;;;;;6.53;46.14;100904.11;105745;1253;73077;-61
2024/02/19 07:53:34;;;;;;;2.80;2.10;;;;;;;6.27;46.65;100901.81;105183;1253;61464;-60
2024/02/19 07:56:05;;;;;;;3.00;2.40;;;;;;;6.22;46.64;100903.77;105387;1257;60519;-62
2024/02/19 07:59:24;;;;;;;6.30;2.60;;;;;;;6.29;46.09;100902.51;106287;1253;73313;-60
2024/02/19 08:02:11;;;;;;;3.70;2.60;;;;;;;6.37;45.50;100897.08;105988;1258;70675;-61
2024/02/19 08:04:40;;;;;;;4.10;2.40;;;;;;;6.38;45.67;100894.79;104596;1253;73174;-61
2024/02/19 08:07:51;;;;;;;4.10;2.60;;;;;;;6.42;45.86;100898.27;105338;1253;62498;-61
2024/02/19 08:11:09;;;;;;;4.00;2.10;;;;;;;7.02;44.18;100892.60;104794;1256;61111;-60
2024/02/19 08:14:24;;;;;;;2.30;1.80;;;;;;;6.58;43.65;100893.80;105711;1252;74175;-60
2024/02/19 08:17:06;;;;;;;2.70;1.80;;;;;;;6.47;43.29;100893.00;106225;1252;69245;-59
2024/02/19 08:20:23;;;;;;;1.60;1.40;;;;;;;6.55;44.08;100893.98;105284;1259;71152;-59
2024/02/19 08:23:11;;;;;;;2.30;1.60;;;;;;;6.71;42.95;100898.07;105676;1259;61560;-60
2024/02/19 08:25:54;;;;;;;2.70;1.50;;;;;;;6.83;42.82;100898.16;105707;1257;60527;-61
2024/02/19 08:28:46;;;;;;;1.60;1.40;;;;;;;7.42;42.25;100893.13;105930;1253;73111;-59
2024/02/19 08:31:51;;;;;;;2.40;1.60;;;;;;;7.62;40.12;100888.89;105035;1256;69551;-61
2024/02/19 08:35:02;;;;;;;1.70;1.20;;;;;;;7.22;40.49;100887.91;106517;1255;72412;-60
2024/02/19 08:37:51;;;;;;;3.40;1.20;;;;;;;7.28;40.36;100889.06;105480;1253;60566;-60
2024/02/19 08:40:22;;;;;;;1.00;0.90;;;;;;;7.25;40.54;100888.05;105978;1256;60542;-60
2024/02/19 08:43:33;;;;;;;0.70;0.60;;;;;;;7.26;40.25;100887.52;105101;1254;73802;-60
2024/02/19 08:47:07;;;;;;;1.80;1.10;;;;;;;7.37;40.06;100885.83;104855;1259;69926;-60
2024/02/19 08:49:46;;;;;;;1.60;1.00;;;;;;;7.82;39.64;100885.35;105702;1253;74091;-59
2024/02/19 08:53:05;;;;;;;1.80;1.00;;;;;;;8.24;38.91;100878.90;105629;1258;60527;-62
2024/02/19 08:55:58;;;;;;;2.00;1.00;;;;;;;8.35;38.07;100878.75;106746;1253;60471;-59
2024/02/19 08:59:17;;;;;;;0.80;0.50;;;;;;;8.43;37.33;100875.52;105778;1258;72667;-60
2024/02/19 09:01:54;;;;;;;0.50;0.50;;;;;;;8.37;35.42;100881.17;105896;1256;68632;-60
2024/02/19 09:04:21;;;;;;;1.30;0.70;;;;;;;8.43;36.90;100874.99;105028;1253;72338;-59
2024/02/19 09:07:34;;;;;;;0.90;0.60;;;;;;;8.47;37.18;100873.55;104803;1254;60528;-60
2024/02/19 09:10:16;;;;;;;1.60;1.00;;;;;;;8.52;35.64;100873.80;105243;1253;60538;-60
2024/02/19 09:13:29;;;;;;;2.10;0.80;;;;;;;8.54;36.29;100877.98;105702;1257;73847;-61
2024/02/19 09:16:05;;;;;;;1.20;0.80;;;;;;;8.38;35.76;100874.17;105675;1253;70568;-60
2024/02/19 09:18:33;;;;;;;1.90;0.80;;;;;;;8.47;35.84;100873.55;105090;1260;72833;-60
2024/02/19 09:21:44;;;;;;;1.10;1.00;;;;;;;8.54;36.37;100875.55;105031;1269;60617;-59
2024/02/19 09:25:05;;;;;;;1.50;1.00;;;;;;;8.81;36.19;100869.35;105858;1256;60535;-60
2024/02/19 09:28:15;;;;;;;1.50;1.30;;;;;;;8.80;36.72;100866.22;105962;1253;74673;-59
2024/02/19 09:30:49;;;;;;;1.40;1.00;;;;;;;8.96;36.55;100866.33;105681;1258;70081;-58
2024/02/19 09:33:54;;;;;;;2.30;1.30;;;;;;;9.06;36.42;100856.00;104927;1254;72323;-61
2024/02/19 09:36:35;;;;;;;2.10;1.20;;;;;;;9.06;35.54;100854.61;105522;1253;60495;-60
2024/02/19 09:39:58;;;;;;;1.90;1.20;;;;;;;8.90;35.33;100828.11;105227;1257;60848;-61
2024/02/19 09:42:37;;;;;;;1.10;1.00;;;;;;;9.13;35.26;100845.02;105957;1255;73809;-62
2024/02/19 09:46:03;;;;;;;0.80;0.60;;;;;;;9.27;34.99;100839.89;106233;1253;69754;-61
2024/02/19 09:48:48;;;;;;;0.50;0.50;;;;;;;9.42;34.25;100833.66;105816;1253;72553;-62
2024/02/19 09:52:06;;;;;;;0.70;0.70;;;;;;;9.34;33.29;100828.39;105168;1259;60567;-60
2024/02/19 09:59:13;;;;;;;0.30;0.30;;;;;;;9.52;32.78;100826.48;105038;1256;73938;-59
2024/02/19 10:02:29;;;;;;;0.30;0.30;;;;;;;9.71;32.68;100829.25;105728;1253;70777;-60
2024/02/19 10:04:56;;;;;;;0.60;0.30;;;;;;;9.83;32.83;100830.91;105886;1258;72810;-63
2024/02/19 10:08:20;;;;;;;0.50;0.40;;;;;;;9.94;31.86;100827.73;105642;1259;60316;-59
2024/02/19 10:11:00;;;;;;;0.70;0.60;;;;;;;10.11;31.90;100827.88;105105;1256;60451;-60
2024/02/19 10:13:41;;;;;;;0.60;0.30;;;;;;;10.37;31.26;100824.50;105723;1253;73673;-60
2024/02/19 10:16:52;;;;;;;0.70;0.70;;;;;;;10.46;31.57;100813.10;106126;1253;70248;-60
2024/02/19 10:19:30;;;;;;;3.40;0.80;;;;;;;10.59;31.87;100809.80;105423;1254;72614;-59
2024/02/19 10:22:09;;;;;;;1.10;0.70;;;;;;;10.61;31.17;100808.00;106405;1253;60436;-59
2024/02/19 10:28:31;;;;;;;1.20;0.80;;;;;;;10.67;31.21;100807.67;105761;1254;74230;-59
2024/02/19 10:31:42;;;;;;;0.90;0.70;;;;;;;10.73;30.70;100804.90;105916;1258;70051;-60
2024/02/19 10:35:05;;;;;;;1.30;0.80;;;;;;;10.62;30.59;100796.40;104826;1257;72465;-62
2024/02/19 10:38:29;;;;;;;0.70;0.60;;;;;;;10.32;31.13;100797.09;105038;1253;61212;-59
2024/02/19 10:41:47;;;;;;;2.30;0.70;;;;;;;9.75;31.66;100792.75;105820;1253;62742;-59
2024/02/19 10:44:24;;;;;;;0.80;0.70;;;;;;;9.56;32.27;100787.00;104967;1254;73701;-59
2024/02/19 10:47:42;;;;;;;1.10;0.60;;;;;;;9.37;32.59;100786.34;105603;1253;68326;-60
2024/02/19 10:50:21;;;;;;;1.10;0.80;;;;;;;9.31;32.55;100783.64;104868;1256;72749;-60
2024/02/19 10:53:04;;;;;;;1.70;0.40;;;;;;;9.42;31.94;100778.02;105049;1253;60565;-60
2024/02/19 11:04:59;;;;;;;0.90;0.60;;;;;;;9.74;31.34;100773.32;104592;1256;70075;-59
2024/02/19 11:12:35;;;;;;;0.60;0.40;;;;;;;9.53;31.24;100765.02;104640;1252;60543;-60
2024/02/19 11:16:03;;;;;;;0.50;0.50;;;;;;;9.48;31.06;100763.19;104719;1258;60566;-61
2024/02/19 11:19:22;;;;;;;0.50;0.50;;;;;;;9.80;31.31;100759.68;105810;1253;74679;-61
2024/02/19 11:22:33;;;;;;;1.60;0.50;;;;;;;10.46;29.89;100758.75;105212;1256;69511;-61
2024/02/19 11:25:44;;;;;;;0.40;0.40;;;;;;;10.74;30.17;100756.13;104697;1253;74197;-60
2024/02/19 11:28:27;;;;;;;0.80;0.50;;;;;;;10.72;29.90;100754.77;105362;1255;60839;-61
2024/02/19 11:31:45;;;;;;;0.40;0.40;;;;;;;10.60;29.57;100752.61;105141;1258;60435;-61
2024/02/19 11:34:25;;;;;;;0.50;0.30;;;;;;;10.54;29.36;100743.98;105136;1256;74047;-61
2024/02/19 11:37:43;;;;;;;0.50;0.30;;;;;;;10.61;29.19;100746.81;105603;1253;69921;-61
2024/02/19 11:40:17;;;;;;;0.80;0.50;;;;;;;10.70;29.17;100744.83;105055;1255;71740;-62
2024/02/19 11:42:44;;;;;;;0.50;0.30;;;;;;;10.84;29.03;100740.77;104451;1259;60452;-62
2024/02/19 11:45:11;;;;;;;0.80;0.60;;;;;;;10.86;29.11;100740.02;105447;1255;60859;-61
2024/02/19 11:53:17;;;;;;;0.50;0.40;;;;;;;11.01;28.99;100730.88;105048;1261;68441;-61
2024/02/19 11:56:34;;;;;;;1.10;0.70;;;;;;;11.02;29.08;100728.89;105115;1257;72817;-59
2024/02/19 11:59:53;;;;;;;0.60;0.50;;;;;;;10.81;29.53;100728.04;105486;1253;61006;-60
2024/02/19 12:07:19;;;;;;;1.10;0.60;;;;;;;11.15;29.00;100720.64;105282;1254;72693;-59
2024/02/19 12:10:00;;;;;;;0.70;0.60;;;;;;;11.18;29.32;100718.46;105167;1257;69854;-60
2024/02/19 12:12:37;;;;;;;1.30;0.60;;;;;;;11.24;29.10;100722.14;106245;1252;72486;-60
2024/02/19 12:15:58;;;;;;;0.90;0.80;;;;;;;11.33;28.85;100717.52;105539;1253;60539;-60
2024/02/19 12:18:26;;;;;;;1.10;0.70;;;;;;;11.41;29.17;100719.39;104329;1253;61194;-60
2024/02/19 12:21:44;;;;;;;1.20;0.60;;;;;;;11.41;29.00;100717.62;105317;1253;73946;-61
2024/02/19 12:25:09;;;;;;;0.40;0.40;;;;;;;11.47;29.00;100707.97;106042;1253;70115;-63
2024/02/19 12:27:48;;;;;;;0.90;0.60;;;;;;;11.42;29.03;100706.88;105136;1255;72576;-58
2024/02/19 12:30:56;;;;;;;0.80;0.50;;;;;;;11.39;28.81;100704.00;104734;1256;60565;-56
2024/02/19 12:33:38;;;;;;;0.90;0.50;;;;;;;11.22;29.35;100707.27;104461;1268;60651;-58
2024/02/19 12:36:14;;;;;;;1.00;0.70;;;;;;;11.36;29.33;100703.02;104816;1259;74570;-57
2024/02/19 12:39:01;;;;;;;1.40;0.70;;;;;;;11.43;28.97;100705.27;105146;1253;69491;-57
2024/02/19 12:46:34;;;;;;;1.10;0.60;;;;;;;11.69;28.69;100702.73;105009;1253;61616;-58
2024/02/19 12:49:24;;;;;;;0.60;0.60;;;;;;;11.75;28.37;100696.75;105559;1256;60455;-60
2024/02/19 12:52:48;;;;;;;1.00;0.70;;;;;;;11.77;28.18;100689.14;104843;1253;73909;-58
2024/02/19 12:55:54;;;;;;;0.90;0.70;;;;;;;11.70;28.47;100683.38;105205;1253;69309;-61
2024/02/19 12:59:17;;;;;;;1.20;0.70;;;;;;;11.54;28.98;100688.25;104683;1255;72450;-58
2024/02/19 13:02:20;;;;;;;0.60;0.60;;;;;;;11.53;28.54;100685.31;104717;1256;60566;-58
2024/02/19 13:04:47;;;;;;;1.60;1.20;;;;;;;11.57;28.80;100681.34;105566;1258;60454;-57
2024/02/19 13:07:20;;;;;;;2.50;1.60;;;;;;;11.55;28.84;100676.13;105531;1257;72495;-57
2024/02/19 13:10:24;;;;;;;1.30;0.90;;;;;;;11.45;28.81;100676.94;106166;1253;69434;-60
2024/02/19 13:13:16;;;;;;;1.20;1.00;;;;;;;11.41;28.82;100675.14;105406;1254;73298;-60
2024/02/19 13:16:37;;;;;;;1.90;0.90;;;;;;;11.38;28.69;100675.94;104666;1254;60571;-59
2024/02/19 13:19:04;;;;;;;2.10;1.70;;;;;;;11.28;28.58;100674.63;105081;1253;60673;-60
2024/02/19 13:22:29;;;;;;;1.40;1.10;;;;;;;11.27;28.87;100676.78;105933;1253;74270;-60
2024/02/19 13:25:11;;;;;;;1.60;0.80;;;;;;;11.27;28.80;100671.33;105819;1253;69977;-61
2024/02/19 13:28:36;;;;;;;1.30;1.00;;;;;;;11.19;29.00;100674.04;104634;1272;72383;-60
2024/02/19 13:31:04;;;;;;;1.10;0.90;;;;;;;11.15;28.90;100674.84;105697;1258;60674;-60
2024/02/19 13:34:22;;;;;;;0.90;0.80;;;;;;;11.15;28.80;100675.02;104771;1255;60621;-60
2024/02/19 13:45:14;;;;;;;1.00;0.80;;;;;;;11.23;28.70;100663.39;104810;1266;72761;-60
2024/02/19 13:48:25;;;;;;;1.60;1.10;;;;;;;11.37;28.96;100661.92;105700;1257;60550;-60
2024/02/19 13:51:43;;;;;;;0.80;0.80;;;;;;;11.31;28.68;100657.70;105094;1256;61049;-57
2024/02/19 13:54:22;;;;;;;0.90;0.80;;;;;;;11.37;28.42;100657.71;105069;1260;73934;-59
2024/02/19 13:57:36;;;;;;;0.60;0.60;;;;;;;11.30;28.98;100657.02;104429;1256;69462;-60
2024/02/19 14:00:54;;;;;;;1.30;1.20;;;;;;;10.72;29.09;100656.04;105183;1275;72365;-59
2024/02/19 14:03:59;;;;;;;2.20;1.30;;;;;;;10.29;29.60;100656.61;106374;1255;60568;-60
2024/02/19 14:06:39;;;;;;;1.20;1.00;;;;;;;10.16;29.73;100659.75;104668;1258;60450;-59
2024/02/19 14:10:07;;;;;;;1.50;0.90;;;;;;;10.08;29.92;100659.23;104541;1256;73931;-59
2024/02/19 14:12:37;;;;;;;0.60;0.60;;;;;;;10.13;29.72;100659.98;104569;1257;69479;-59
2024/02/19 14:15:16;;;;;;;1.30;1.00;;;;;;;10.44;29.78;100657.11;105233;1256;72576;-60
2024/02/19 14:17:46;;;;;;;1.60;1.00;;;;;;;11.25;28.98;100658.40;104888;1256;60574;-59
2024/02/19 14:20:13;;;;;;;1.10;1.00;;;;;;;11.24;28.86;100654.91;104405;1259;60870;-60
2024/02/19 14:22:42;;;;;;;2.30;1.00;;;;;;;11.19;28.68;100650.33;104585;1253;73997;-60
2024/02/19 14:25:11;;;;;;;;;;;;;;;11.07;28.92;100647.00;105106;1256;70516;-59
2024/02/19 14:27:44;;;;;;;1.10;0.90;;;;;;;10.99;29.00;100647.95;105416;1253;72448;-59
2024/02/19 14:30:12;;;;;;;2.70;0.80;;;;;;;10.84;29.14;100647.64;104937;1254;60451;-58
2024/02/19 14:32:40;;;;;;;1.20;0.50;;;;;;;10.70;29.31;100653.80;104847;1254;60576;-58
2024/02/19 14:35:08;;;;;;;1.60;1.20;;;;;;;10.54;29.45;100651.62;105250;1254;72551;-58
2024/02/19 14:37:40;;;;;;;2.20;1.10;;;;;;;10.20;29.85;100652.80;105757;1254;69548;-58
2024/02/19 14:40:16;;;;;;;2.10;1.40;;;;;;;10.03;30.18;100654.09;104987;1258;71711;-59
2024/02/19 14:42:45;;;;;;;1.40;1.10;;;;;;;9.84;30.52;100657.52;105713;1256;60651;-58
2024/02/19 14:48:40;;;;;;;2.50;1.30;;;;;;;9.03;32.11;100655.95;103156;1282;615950;-60
2024/02/19 14:51:59;;;;;;;3.50;1.50;;;;;;;10.00;30.45;100650.86;104709;1257;60141;-58
2024/02/19 14:55:19;;;;;;;1.90;1.50;;;;;;;9.82;30.71;100646.91;104264;1262;59422;-57
2024/02/19 14:58:38;;;;;;;2.40;1.50;;;;;;;9.81;30.68;100649.55;104779;1263;71753;-57
2024/02/19 15:01:56;;;;;;;5.30;1.40;;;;;;;9.73;30.78;100652.02;104125;1257;1090955;-58
2024/02/19 15:05:17;;;;;;;3.70;1.70;;;;;;;9.51;30.90;100651.30;104702;1267;73315;-58
2024/02/19 15:08:36;;;;;;;2.80;1.50;;;;;;;9.29;30.99;100659.81;104925;1256;60171;-58
2024/02/19 15:11:55;;;;;;;1.70;1.50;;;;;;;9.18;31.25;100660.05;104592;1254;60281;-58
2024/02/19 15:14:22;;;;;;;2.40;1.80;;;;;;;9.06;31.48;100658.20;105597;1254;72277;-59
2024/02/19 15:17:25;;;;;;;3.60;2.30;;;;;;;8.93;31.45;100663.86;104644;1254;69571;-58
2024/02/19 15:20:44;;;;;;;3.70;2.50;;;;;;;8.86;31.61;100662.96;105240;1259;72488;-58
2024/02/19 15:24:04;;;;;;;3.90;2.50;;;;;;;8.70;31.79;100665.02;104870;1259;59656;-62
2024/02/19 15:27:26;;;;;;;5.50;2.50;;;;;;;8.54;31.86;100666.18;105481;1253;60022;-59
2024/02/19 15:30:28;;;;;;;3.00;2.50;;;;;;;8.47;31.95;100669.30;104450;1259;72875;-58
2024/02/19 15:33:47;;;;;;;3.80;2.80;;;;;;;8.38;32.17;100673.23;104698;1256;69517;-58
2024/02/19 15:36:55;;;;;;;4.60;2.70;;;;;;;8.32;32.26;100674.23;105701;1259;72495;-59
2024/02/19 15:44:15;;;;;;;4.30;3.10;;;;;;;8.09;32.77;100676.86;104458;1254;59925;-60
2024/02/19 15:47:33;;;;;;;3.80;2.40;;;;;;;8.03;32.96;100679.08;105077;1259;73349;-59
2024/02/19 15:50:52;;;;;;;3.50;2.70;;;;;;;7.98;33.15;100674.77;105103;1254;69173;-58
2024/02/19 15:53:35;;;;;;;4.60;3.00;;;;;;;7.89;33.25;100670.03;104560;1257;71590;-59
2024/02/19 15:56:51;;;;;;;4.20;3.00;;;;;;;7.79;33.50;100667.02;104668;1257;59906;-59
2024/02/19 15:59:41;;;;;;;4.80;3.40;;;;;;;7.74;33.71;100667.64;104857;1259;60745;-59
2024/02/19 16:07:26;;;;;;;6.30;4.20;;;;;;;7.66;33.81;100658.16;104752;1259;71502;-57
2024/02/19 16:10:47;;;;;;;7.00;5.60;;;;;;;7.64;33.68;100656.80;105336;1254;72123;-58
2024/02/19 16:14:06;;;;;;;10.70;7.00;;;;;;;7.37;33.91;100655.41;104482;1272;59740;-58
2024/02/19 16:16:35;;;;;;;11.10;8.00;;;;;;;7.27;34.41;100663.56;105417;1257;60027;-58
2024/02/19 16:19:53;;;;;;;12.80;9.00;;;;;;;7.30;34.34;100669.64;106031;1259;72877;-59
2024/02/19 16:23:14;;;;;;;10.60;7.20;;;;;;;7.25;34.73;100664.11;104904;1253;69995;-58
2024/02/19 16:25:41;;;;;;;11.80;6.80;;;;;;;7.19;34.70;100660.17;104653;1259;72476;-58
2024/02/19 16:28:55;;;;;;;11.50;6.50;;;;;;;7.11;34.90;100666.21;104342;1259;59735;-59
2024/02/19 16:36:03;;;;;;;10.90;7.00;;;;;;;6.38;35.86;100667.52;105104;1259;72807;-58
2024/02/19 16:39:25;;;;;;;7.50;5.30;;;;;;;6.26;36.09;100665.36;104970;1258;69532;-59
2024/02/19 16:42:43;;;;;;;7.10;5.20;;;;;;;6.20;36.44;100663.33;105137;1255;72497;-59
2024/02/19 16:46:08;;;;;;;9.50;5.40;;;;;;;6.17;36.58;100655.35;104410;1274;59764;-58
2024/02/19 16:49:27;;;;;;;6.70;4.90;;;;;;;6.16;36.70;100649.78;104313;1274;59853;-59
2024/02/19 16:52:46;;;;;;;12.40;6.60;;;;;;;6.12;37.13;100646.67;104223;1259;73332;-58
2024/02/19 16:56:04;;;;;;;10.80;7.00;;;;;;;6.09;37.06;100646.70;105396;1259;69621;-59
2024/02/19 16:59:23;;;;;;;12.40;7.20;;;;;;;6.07;37.18;100650.04;104761;1259;71763;-60
2024/02/19 17:02:42;;;;;;;12.00;7.50;;;;;;;6.05;37.20;100650.05;104561;1260;60172;-60
2024/02/19 17:06:01;;;;;;;13.60;8.70;;;;;;;6.02;37.50;100649.55;104512;1260;59909;-60
2024/02/19 17:09:20;;;;;;;14.10;8.50;;;;;;;5.99;37.31;100647.48;105566;1259;71648;-61
2024/02/19 17:12:38;;;;;;;12.90;8.10;;;;;;;5.91;37.34;100647.00;105385;1258;70191;-60
2024/02/19 17:15:59;;;;;;;12.80;7.60;;;;;;;5.86;37.33;100642.52;104484;1276;72791;-61
2024/02/19 17:19:19;;;;;;;12.40;7.80;;;;;;;5.76;37.51;100643.09;104314;1255;60999;-60
2024/02/19 17:22:37;;;;;;;13.00;7.50;;;;;;;5.73;37.77;100638.95;104319;1260;60301;-60
2024/02/19 17:25:50;;;;;;;13.80;7.70;;;;;;;5.71;37.92;100633.21;104540;1259;73064;-59